Time;durP1;ratioP1;P1;durP2;ratioP2;P2;SDS_P1;SDS_P2;PMS_P1;PMS_P2;Temp;Humidity;BMP_temperature;BMP_pressure;BME280_temperature;BME280_humidity;BME280_pressure;Samples;Min_cycle;Max_cycle;Signal;HPM_P1;HPM_P2
2022/06/14 00:00:54;;;;;;;;;;;;;;;24.99;43.63;99928.28;7312481;19;129590;-36
2022/06/14 00:03:20;;;;;;;;;;;;;;;24.99;43.24;99928.28;7312397;19;129550;-36
2022/06/14 00:05:45;;;;;;;;;;;;;;;25.00;43.11;99929.91;7311468;19;130174;-37
2022/06/14 00:08:12;;;;;;;;;;;;;;;24.99;43.33;99923.00;7305496;19;129732;-37
2022/06/14 00:10:37;;;;;;;;;;;;;;;24.99;42.99;99920.38;7310945;19;129128;-37
2022/06/14 00:13:02;;;;;;;;;;;;;;;24.99;43.01;99923.81;7312506;19;129378;-37
2022/06/14 00:15:28;;;;;;;;;;;;;;;25.00;43.38;99924.66;7309596;19;130716;-37
2022/06/14 00:17:53;;;;;;;;;;;;;;;25.00;43.29;99929.91;7310062;19;129538;-37
2022/06/14 00:20:18;;;;;;;;;;;;;;;25.00;43.31;99935.19;7310415;19;129615;-37
2022/06/14 00:22:44;;;;;;;;;;;;;;;25.01;43.02;99936.81;7309590;19;129205;-36
2022/06/14 00:25:22;;;;;;;;;;;;;;;25.00;43.56;99940.44;7309654;19;129749;-36
2022/06/14 00:27:47;;;;;;;;;;;;;;;25.00;43.41;99937.81;7307640;19;129805;-36
2022/06/14 00:30:12;;;;;;;;;;;;;;;25.00;43.08;99946.53;7308717;19;131049;-36
2022/06/14 00:32:38;;;;;;;;;;;;;;;25.01;43.72;99942.09;7311521;19;128897;-36
2022/06/14 00:35:03;;;;;;;;;;;;;;;25.01;43.06;99940.28;7308938;19;130169;-37
2022/06/14 00:37:28;;;;;;;;;;;;;;;25.02;43.36;99938.50;7311152;19;130364;-37
2022/06/14 00:39:54;;;;;;;;;;;;;;;25.00;43.31;99940.44;7314926;19;128968;-36
2022/06/14 00:42:21;;;;;;;;;;;;;;;24.94;43.23;99930.53;7318967;19;129337;-37
2022/06/14 00:45:04;;;;;;;;;;;;;;;24.91;43.41;99930.81;7318226;19;130214;-36
2022/06/14 00:47:32;;;;;;;;;;;;;;;25.01;43.21;99948.19;7315040;19;130084;-37
2022/06/14 00:50:00;;;;;;;;;;;;;;;25.01;43.64;99947.34;7315136;19;130267;-36
2022/06/14 00:52:42;;;;;;;;;;;;;;;25.02;42.96;99943.75;7318336;19;130018;-36
2022/06/14 00:55:10;;;;;;;;;;;;;;;25.01;43.67;99952.59;7316698;19;129064;-36
2022/06/14 00:57:39;;;;;;;;;;;;;;;25.00;43.01;99943.91;7317402;19;131094;-37
2022/06/14 01:00:07;;;;;;;;;;;;;;;25.02;43.63;99943.75;7315104;19;129543;-36
2022/06/14 01:02:36;;;;;;;;;;;;;;;25.02;43.25;99947.22;7317421;19;129374;-37
2022/06/14 01:05:04;;;;;;;;;;;;;;;24.94;43.23;99939.22;7317834;19;129201;-37
2022/06/14 01:07:32;;;;;;;;;;;;;;;25.03;43.51;99955.91;7316725;19;131370;-37
2022/06/14 01:10:01;;;;;;;;;;;;;;;25.02;43.50;99959.53;7317801;19;129057;-36
2022/06/14 01:12:31;;;;;;;;;;;;;;;25.01;43.23;99955.22;7317248;19;129318;-36
2022/06/14 01:15:08;;;;;;;;;;;;;;;25.02;43.30;99951.66;7316279;19;130450;-37
2022/06/14 01:17:40;;;;;;;;;;;;;;;25.03;43.61;99961.19;7316246;19;130349;-36
2022/06/14 01:20:05;;;;;;;;;;;;;;;25.01;43.47;99956.06;7315067;19;130701;-37
2022/06/14 01:22:32;;;;;;;;;;;;;;;25.03;43.24;99956.75;7316729;19;129253;-37
2022/06/14 01:24:58;;;;;;;;;;;;;;;25.04;43.17;99960.22;7315164;19;132132;-37
2022/06/14 01:27:24;;;;;;;;;;;;;;;25.01;43.50;99957.88;7312314;19;129941;-37
2022/06/14 01:29:56;;;;;;;;;;;;;;;25.01;43.41;99952.59;7315644;19;128879;-36
2022/06/14 01:32:24;;;;;;;;;;;;;;;25.04;43.42;99961.03;7316648;19;129767;-36
2022/06/14 01:34:51;;;;;;;;;;;;;;;25.02;43.49;99959.53;7315815;19;130647;-36
2022/06/14 01:37:16;;;;;;;;;;;;;;;25.03;43.17;99962.00;7315761;19;129678;-36
2022/06/14 01:39:42;;;;;;;;;;;;;;;25.03;43.24;99961.19;7312653;19;129370;-37
2022/06/14 01:42:07;;;;;;;;;;;;;;;25.01;43.56;99969.22;7316930;19;130716;-37
2022/06/14 01:44:32;;;;;;;;;;;;;;;25.05;43.36;99969.75;7316376;19;130145;-37
2022/06/14 01:47:03;;;;;;;;;;;;;;;25.05;43.14;99975.00;7315426;19;129905;-36
2022/06/14 01:52:25;;;;;;;;;;;;;;;25.05;42.91;99975.00;7315773;19;129572;-37
2022/06/14 01:54:56;;;;;;;;;;;;;;;24.96;42.98;99965.38;7317286;19;129894;-36
2022/06/14 01:57:41;;;;;;;;;;;;;;;25.05;43.39;99977.63;7315371;19;129795;-37
2022/06/14 02:00:13;;;;;;;;;;;;;;;25.05;43.36;99977.63;7315280;19;129463;-36
2022/06/14 02:02:43;;;;;;;;;;;;;;;25.04;42.96;99981.25;7317359;19;129444;-36
2022/06/14 02:05:16;;;;;;;;;;;;;;;25.05;43.31;99985.53;7314666;19;129073;-37
2022/06/14 02:07:41;;;;;;;;;;;;;;;25.05;42.90;99986.38;7314198;19;130402;-37
2022/06/14 02:10:16;;;;;;;;;;;;;;;25.05;42.94;99993.44;7312279;19;129027;-36
2022/06/14 02:12:55;;;;;;;;;;;;;;;25.03;43.14;99992.75;7316502;19;130085;-37
2022/06/14 02:15:29;;;;;;;;;;;;;;;25.01;43.12;99981.53;7312783;19;131078;-36
2022/06/14 02:17:54;;;;;;;;;;;;;;;25.05;43.17;99988.16;7313207;19;129339;-36
2022/06/14 02:20:22;;;;;;;;;;;;;;;24.99;43.10;99975.63;7314574;19;129145;-37
2022/06/14 02:22:51;;;;;;;;;;;;;;;25.05;43.50;99985.53;7315295;19;129451;-37
2022/06/14 02:25:21;;;;;;;;;;;;;;;25.05;42.65;99996.06;7314111;19;129209;-36
2022/06/14 02:27:59;;;;;;;;;;;;;;;25.04;43.14;99989.16;7314244;19;130497;-37
2022/06/14 02:30:27;;;;;;;;;;;;;;;25.06;42.83;99992.44;7311819;19;129488;-36
2022/06/14 02:32:56;;;;;;;;;;;;;;;25.06;43.35;99992.44;7315384;19;130188;-36
2022/06/14 02:35:25;;;;;;;;;;;;;;;24.97;43.44;99974.94;7313183;19;129704;-37
2022/06/14 02:37:58;;;;;;;;;;;;;;;25.06;43.37;99992.44;7312646;19;130395;-37
2022/06/14 02:40:42;;;;;;;;;;;;;;;25.07;42.72;99994.09;7312232;19;129820;-36
2022/06/14 02:43:22;;;;;;;;;;;;;;;25.06;43.12;100003.78;7314070;19;129140;-37
2022/06/14 02:45:57;;;;;;;;;;;;;;;25.07;42.78;100004.63;7313219;19;129496;-37
2022/06/14 02:48:26;;;;;;;;;;;;;;;25.08;42.72;100008.91;7312490;19;130728;-36
2022/06/14 02:51:02;;;;;;;;;;;;;;;25.07;43.07;100012.53;7308776;19;129680;-36
2022/06/14 02:53:31;;;;;;;;;;;;;;;25.07;43.42;100013.34;7314295;19;128896;-37
2022/06/14 02:56:03;;;;;;;;;;;;;;;24.97;43.46;99996.00;7311890;19;129093;-36
2022/06/14 02:58:36;;;;;;;;;;;;;;;25.06;42.63;100018.75;7310607;19;132073;-37
2022/06/14 03:01:07;;;;;;;;;;;;;;;25.07;43.21;100010.69;7309099;19;129816;-37
2022/06/14 03:03:38;;;;;;;;;;;;;;;24.98;42.89;100003.72;7306494;19;129911;-37
2022/06/14 03:06:11;;;;;;;;;;;;;;;25.07;42.79;100020.41;7313926;19;130915;-37
2022/06/14 03:08:49;;;;;;;;;;;;;;;25.06;43.12;100024.84;7310376;19;130637;-36
2022/06/14 03:11:23;;;;;;;;;;;;;;;25.08;43.01;100024.69;7310133;19;129104;-36
2022/06/14 03:14:02;;;;;;;;;;;;;;;25.08;43.26;100030.78;7310721;19;129056;-37
2022/06/14 03:16:31;;;;;;;;;;;;;;;25.08;43.42;100035.22;7310099;19;129698;-36
2022/06/14 03:19:00;;;;;;;;;;;;;;;25.07;43.09;100037.00;7311311;19;129619;-37
2022/06/14 03:21:31;;;;;;;;;;;;;;;25.08;42.69;100040.47;7311602;19;129895;-36
2022/06/14 03:23:59;;;;;;;;;;;;;;;25.00;42.80;100028.09;7313068;19;128856;-36
2022/06/14 03:26:30;;;;;;;;;;;;;;;25.09;42.80;100042.16;7311456;19;129227;-37
2022/06/14 03:28:58;;;;;;;;;;;;;;;24.99;43.12;100025.63;7310128;19;129908;-37
2022/06/14 03:31:43;;;;;;;;;;;;;;;25.07;43.13;100033.56;7308668;19;129327;-36
2022/06/14 03:34:14;;;;;;;;;;;;;;;25.08;43.41;100035.22;7308991;19;129114;-37
2022/06/14 03:36:39;;;;;;;;;;;;;;;25.07;43.36;100041.47;7310761;19;129974;-37
2022/06/14 03:39:16;;;;;;;;;;;;;;;25.10;42.93;100030.63;7308266;19;131263;-37
2022/06/14 03:41:43;;;;;;;;;;;;;;;25.10;43.05;100038.53;7314372;19;129196;-36
2022/06/14 03:44:09;;;;;;;;;;;;;;;25.07;42.94;100030.94;7312211;19;129156;-36
2022/06/14 03:46:36;;;;;;;;;;;;;;;25.08;43.01;100033.41;7311997;19;129717;-36
2022/06/14 03:49:09;;;;;;;;;;;;;;;25.08;42.98;100033.41;7307837;19;130329;-37
2022/06/14 03:51:46;;;;;;;;;;;;;;;25.07;43.01;100030.94;7309948;19;130536;-37
2022/06/14 03:54:18;;;;;;;;;;;;;;;25.06;43.57;100037.16;7309044;19;129767;-37
2022/06/14 03:56:50;;;;;;;;;;;;;;;24.98;42.93;100021.31;7306570;19;131519;-36
2022/06/14 03:59:27;;;;;;;;;;;;;;;25.08;42.75;100038.69;7307012;19;130377;-36
2022/06/14 04:02:02;;;;;;;;;;;;;;;25.08;42.77;100048.38;7309898;19;129203;-37
2022/06/14 04:04:37;;;;;;;;;;;;;;;25.09;42.83;100044.78;7311650;19;129765;-37
2022/06/14 04:07:02;;;;;;;;;;;;;;;24.98;43.09;100023.94;7310572;19;130086;-37
2022/06/14 04:09:42;;;;;;;;;;;;;;;25.10;43.00;100043.78;7309439;19;130387;-37
2022/06/14 04:12:13;;;;;;;;;;;;;;;25.04;43.00;100034.69;7306572;19;130458;-36
2022/06/14 04:14:45;;;;;;;;;;;;;;;25.09;42.61;100055.31;7307238;19;131243;-36
2022/06/14 04:17:16;;;;;;;;;;;;;;;25.09;43.01;100058.75;7293521;19;129912;-37
2022/06/14 04:19:54;;;;;;;;;;;;;;;25.08;43.32;100051.84;7297104;19;129961;-37
2022/06/14 04:22:23;;;;;;;;;;;;;;;25.27;47.46;100059.56;7301254;19;130050;-37
2022/06/14 04:25:15;;;;;;;;;;;;;;;25.33;48.13;100042.34;7298183;19;130149;-37
2022/06/14 04:27:51;;;;;;;;;;;;;;;25.45;48.90;100047.22;7296383;19;129819;-36
2022/06/14 04:30:16;;;;;;;;;;;;;;;25.58;48.26;100052.09;7308515;19;129945;-36
2022/06/14 04:32:53;;;;;;;;;;;;;;;25.62;48.63;100053.44;7306162;19;129455;-37
2022/06/14 04:35:18;;;;;;;;;;;;;;;25.54;48.74;100029.69;7308259;19;130636;-36
2022/06/14 04:37:45;;;;;;;;;;;;;;;25.66;49.52;100045.09;7308056;19;130327;-37
2022/06/14 04:40:18;;;;;;;;;;;;;;;25.67;49.43;100053.78;7302747;19;130882;-37
2022/06/14 04:42:47;;;;;;;;;;;;;;;25.68;49.55;100047.56;7300158;19;130910;-37
2022/06/14 04:45:16;;;;;;;;;;;;;;;25.67;49.47;100052.00;7299617;19;129919;-37
2022/06/14 04:47:50;;;;;;;;;;;;;;;25.70;49.41;100050.88;7305005;19;130657;-36
2022/06/14 04:50:19;;;;;;;;;;;;;;;25.70;49.57;100050.88;7303938;19;131073;-37
2022/06/14 04:52:57;;;;;;;;;;;;;;;25.70;49.54;100051.69;7304492;19;129105;-37
2022/06/14 04:55:29;;;;;;;;;;;;;;;25.16;44.17;100048.44;7297537;19;130820;-36
2022/06/14 04:58:20;;;;;;;;;;;;;;;25.00;44.78;100050.94;7295490;19;130393;-37
2022/06/14 05:00:57;;;;;;;;;;;;;;;24.94;43.98;100041.03;7305629;19;130180;-37
2022/06/14 05:03:47;;;;;;;;;;;;;;;24.94;44.12;100041.03;7305667;19;129423;-36
2022/06/14 05:06:15;;;;;;;;;;;;;;;25.01;45.56;100036.78;7309815;19;130126;-37
2022/06/14 05:08:45;;;;;;;;;;;;;;;25.27;49.19;100053.47;7304008;19;129540;-37
2022/06/14 05:11:16;;;;;;;;;;;;;;;25.42;49.39;100049.38;7308331;19;129657;-36
2022/06/14 05:13:50;;;;;;;;;;;;;;;25.49;49.55;100047.75;7307497;19;130109;-37
2022/06/14 05:16:42;;;;;;;;;;;;;;;25.54;49.45;100056.84;7303129;19;130152;-37
2022/06/14 05:19:27;;;;;;;;;;;;;;;25.57;49.50;100055.69;7300997;19;130661;-36
2022/06/14 05:21:55;;;;;;;;;;;;;;;25.61;49.87;100062.31;7306178;19;129212;-37
2022/06/14 05:24:21;;;;;;;;;;;;;;;25.62;49.94;100058.69;7303209;19;129587;-36
2022/06/14 05:26:47;;;;;;;;;;;;;;;25.64;50.21;100062.00;7295694;19;131243;-37
2022/06/14 05:29:18;;;;;;;;;;;;;;;25.66;49.92;100065.31;7297194;19;130157;-37
2022/06/14 05:31:43;;;;;;;;;;;;;;;25.65;50.21;100068.94;7296308;19;130807;-37
2022/06/14 05:34:22;;;;;;;;;;;;;;;25.06;44.40;100060.84;7295552;19;131609;-36
2022/06/14 05:36:53;;;;;;;;;;;;;;;24.92;44.69;100074.53;7310148;19;129905;-36
2022/06/14 05:39:24;;;;;;;;;;;;;;;24.80;44.31;100054.69;7306014;19;129399;-37
2022/06/14 05:41:55;;;;;;;;;;;;;;;24.86;44.43;100059.34;7313928;19;130663;-37
2022/06/14 05:44:29;;;;;;;;;;;;;;;24.89;44.19;100062.50;7306888;19;129842;-36
2022/06/14 05:46:56;;;;;;;;;;;;;;;24.90;44.34;100068.59;7310021;19;129354;-37
2022/06/14 05:49:28;;;;;;;;;;;;;;;25.12;49.03;100062.88;7313819;19;129464;-37
2022/06/14 05:52:00;;;;;;;;;;;;;;;25.30;48.65;100075.03;7312289;19;130228;-36
2022/06/14 05:54:38;;;;;;;;;;;;;;;25.41;49.76;100077.47;7314488;19;129294;-37
2022/06/14 05:57:04;;;;;;;;;;;;;;;25.47;49.40;100073.41;7313621;19;129177;-36
2022/06/14 05:59:34;;;;;;;;;;;;;;;25.51;49.76;100075.59;7313565;19;130477;-37
2022/06/14 06:02:13;;;;;;;;;;;;;;;25.56;49.81;100090.91;7311624;19;130366;-37
2022/06/14 06:04:53;;;;;;;;;;;;;;;25.46;49.94;100075.22;7315095;19;129293;-36
2022/06/14 06:07:23;;;;;;;;;;;;;;;25.56;50.04;100091.75;7312564;19;129008;-37
2022/06/14 06:10:08;;;;;;;;;;;;;;;25.60;50.23;100100.19;7312534;19;130338;-36
2022/06/14 06:12:36;;;;;;;;;;;;;;;25.49;50.30;100072.28;7316764;19;130829;-36
2022/06/14 06:15:11;;;;;;;;;;;;;;;25.18;45.01;100092.06;7314567;19;129539;-36
2022/06/14 06:17:39;;;;;;;;;;;;;;;24.91;45.17;100104.44;7314899;19;129002;-37
2022/06/14 06:20:21;;;;;;;;;;;;;;;24.84;45.32;100108.66;7312125;19;130142;-38
2022/06/14 06:23:06;;;;;;;;;;;;;;;24.82;44.31;100105.34;7312885;19;129177;-37
2022/06/14 06:25:35;;;;;;;;;;;;;;;24.84;44.22;100108.66;7313188;19;130891;-36
2022/06/14 06:28:07;;;;;;;;;;;;;;;24.84;44.54;100103.38;7311173;19;129348;-36
2022/06/14 06:30:37;;;;;;;;;;;;;;;24.88;44.57;100096.84;7315906;19;130494;-37
2022/06/14 06:33:02;;;;;;;;;;;;;;;25.10;48.79;100099.03;7314564;19;131299;-37
2022/06/14 06:35:36;;;;;;;;;;;;;;;25.18;49.96;100081.53;7310654;19;129302;-36
2022/06/14 06:38:08;;;;;;;;;;;;;;;25.37;49.51;100093.75;7309689;19;130486;-37
2022/06/14 06:40:34;;;;;;;;;;;;;;;25.39;49.96;100084.69;7313863;19;130133;-37
2022/06/14 06:43:12;;;;;;;;;;;;;;;25.47;49.77;100091.81;7314999;19;129652;-37
2022/06/14 06:45:42;;;;;;;;;;;;;;;25.50;50.50;100086.28;7312596;19;129924;-36
2022/06/14 06:48:18;;;;;;;;;;;;;;;25.52;50.53;100089.56;7310515;19;129976;-36
2022/06/14 06:50:45;;;;;;;;;;;;;;;25.54;50.09;100098.13;7315007;19;130358;-37
2022/06/14 06:53:20;;;;;;;;;;;;;;;25.45;50.52;100083.28;7312493;19;130253;-36
2022/06/14 06:56:01;;;;;;;;;;;;;;;25.54;50.72;100108.66;7315035;19;131223;-37
2022/06/14 06:58:37;;;;;;;;;;;;;;;25.04;45.52;100110.19;7310201;19;129963;-37
2022/06/14 07:01:04;;;;;;;;;;;;;;;24.86;44.63;100104.88;7314152;19;130185;-36
2022/06/14 07:03:39;;;;;;;;;;;;;;;24.83;44.92;100106.97;7313344;19;130054;-37
2022/06/14 07:06:06;;;;;;;;;;;;;;;24.81;44.48;100108.94;7313735;19;129096;-36
2022/06/14 07:08:31;;;;;;;;;;;;;;;24.83;44.25;100110.44;7310680;19;128988;-37
2022/06/14 07:10:57;;;;;;;;;;;;;;;24.83;44.53;100109.59;7313809;19;129566;-36
2022/06/14 07:13:33;;;;;;;;;;;;;;;24.83;44.55;100102.56;7312813;19;129216;-37
2022/06/14 07:16:05;;;;;;;;;;;;;;;24.85;45.53;100107.66;7312731;19;130679;-37
2022/06/14 07:18:45;;;;;;;;;;;;;;;25.12;49.22;100115.53;7308679;19;129425;-37
2022/06/14 07:21:19;;;;;;;;;;;;;;;25.25;50.07;100114.16;7309398;19;129964;-36
2022/06/14 07:23:49;;;;;;;;;;;;;;;25.36;49.60;100113.13;7310252;19;129838;-37
2022/06/14 07:26:29;;;;;;;;;;;;;;;25.41;50.26;100110.88;7297034;19;130796;-37
2022/06/14 07:28:59;;;;;;;;;;;;;;;25.45;50.43;100109.59;7306884;19;128997;-37
2022/06/14 07:31:28;;;;;;;;;;;;;;;25.48;50.35;100104.03;7300220;19;130218;-37
2022/06/14 07:33:54;;;;;;;;;;;;;;;25.51;50.21;100103.72;7312183;19;129777;-36
2022/06/14 07:36:27;;;;;;;;;;;;;;;25.52;50.69;100092.19;7310459;19;130686;-37
2022/06/14 07:39:04;;;;;;;;;;;;;;;25.51;50.78;100098.44;7309539;19;131193;-37
2022/06/14 07:41:41;;;;;;;;;;;;;;;25.52;51.04;100090.41;7311875;19;130990;-36
2022/06/14 07:44:07;;;;;;;;;;;;;;;24.96;45.32;100091.66;7314387;19;129266;-36
2022/06/14 07:46:35;;;;;;;;;;;;;;;24.83;45.18;100091.19;7310157;19;129597;-37
2022/06/14 07:49:08;;;;;;;;;;;;;;;24.78;45.04;100098.69;7310886;19;128988;-36
2022/06/14 07:51:59;;;;;;;;;;;;;;;24.80;45.16;100102.03;7311290;19;129182;-36
2022/06/14 07:54:28;;;;;;;;;;;;;;;24.81;44.75;100106.31;7309875;19;130222;-36
2022/06/14 07:56:57;;;;;;;;;;;;;;;24.81;44.34;100101.88;7308393;19;130374;-37
2022/06/14 07:59:25;;;;;;;;;;;;;;;24.73;44.35;100078.13;7310563;19;129764;-37
2022/06/14 08:01:54;;;;;;;;;;;;;;;24.91;47.72;100099.16;7310289;19;129141;-36
2022/06/14 08:04:23;;;;;;;;;;;;;;;25.13;49.17;100099.56;7309127;19;130177;-37
2022/06/14 08:06:56;;;;;;;;;;;;;;;25.26;49.67;100100.03;7313237;19;128680;-36
2022/06/14 08:09:40;;;;;;;;;;;;;;;25.34;49.53;100102.72;7306222;19;129929;-37
2022/06/14 08:12:24;;;;;;;;;;;;;;;25.31;50.37;100096.94;7312993;19;130365;-37
2022/06/14 08:14:58;;;;;;;;;;;;;;;25.43;49.91;100101.03;7312151;19;129218;-36
2022/06/14 08:17:43;;;;;;;;;;;;;;;25.45;50.62;100110.41;7309662;19;129237;-37
2022/06/14 08:20:29;;;;;;;;;;;;;;;25.46;50.13;100105.97;7309302;19;130096;-37
2022/06/14 08:23:00;;;;;;;;;;;;;;;25.48;50.24;100098.75;7309147;19;130770;-37
2022/06/14 08:25:32;;;;;;;;;;;;;;;25.50;51.26;100110.78;7309695;19;131225;-37
2022/06/14 08:28:15;;;;;;;;;;;;;;;25.50;50.66;100107.34;7309984;19;129985;-37
2022/06/14 08:30:43;;;;;;;;;;;;;;;24.80;45.44;100091.50;7309315;19;129776;-37
2022/06/14 08:33:17;;;;;;;;;;;;;;;24.81;45.20;100101.06;7311465;19;130493;-37
2022/06/14 08:35:50;;;;;;;;;;;;;;;24.79;44.98;100103.00;7309394;19;130392;-37
2022/06/14 08:38:29;;;;;;;;;;;;;;;24.77;45.21;100092.63;7308322;19;129627;-37
2022/06/14 08:41:13;;;;;;;;;;;;;;;24.79;44.94;100089.84;7311070;19;130550;-37
2022/06/14 08:43:42;;;;;;;;;;;;;;;24.79;44.33;100101.19;7307658;19;129560;-37
2022/06/14 08:46:30;;;;;;;;;;;;;;;24.82;44.17;100105.34;7309782;19;129665;-36
2022/06/14 08:48:55;;;;;;;;;;;;;;;24.91;47.24;100109.69;7306357;19;129845;-37
2022/06/14 08:51:31;;;;;;;;;;;;;;;25.10;49.53;100105.16;7307255;19;129578;-36
2022/06/14 08:54:02;;;;;;;;;;;;;;;25.23;49.95;100099.50;7310263;19;130944;-37
2022/06/14 08:56:46;;;;;;;;;;;;;;;25.31;50.50;100086.41;7308692;19;130338;-37
2022/06/14 08:59:14;;;;;;;;;;;;;;;25.35;50.27;100087.78;7308423;19;129321;-37
2022/06/14 09:01:58;;;;;;;;;;;;;;;25.41;50.85;100097.72;7317238;19;129082;-37
2022/06/14 09:04:23;;;;;;;;;;;;;;;25.43;50.70;100095.75;7315476;19;130174;-37
2022/06/14 09:06:59;;;;;;;;;;;;;;;25.44;50.39;100097.41;7316060;19;130404;-36
2022/06/14 09:09:43;;;;;;;;;;;;;;;25.37;50.99;100072.69;7313029;19;129906;-36
2022/06/14 09:12:14;;;;;;;;;;;;;;;25.37;50.43;100080.59;7315007;19;129783;-36
2022/06/14 09:14:39;;;;;;;;;;;;;;;25.05;45.50;100088.13;7316927;19;129901;-37
2022/06/14 09:17:17;;;;;;;;;;;;;;;24.76;45.14;100090.16;7313411;19;129494;-36
2022/06/14 09:20:00;;;;;;;;;;;;;;;24.76;44.86;100090.16;7314095;19;129700;-37
2022/06/14 09:22:52;;;;;;;;;;;;;;;24.75;45.35;100078.81;7310711;19;130207;-36
2022/06/14 09:25:20;;;;;;;;;;;;;;;24.77;44.95;100076.84;7313410;19;129274;-37
2022/06/14 09:27:48;;;;;;;;;;;;;;;24.78;45.04;100072.41;7313647;19;129811;-37
2022/06/14 09:30:33;;;;;;;;;;;;;;;24.79;45.09;100079.34;7317081;19;129316;-37
2022/06/14 09:33:16;;;;;;;;;;;;;;;24.82;44.48;100079.03;7312081;19;131571;-36
2022/06/14 09:36:13;;;;;;;;;;;;;;;24.94;48.26;100080.47;7301604;19;130222;-37
2022/06/14 09:38:39;;;;;;;;;;;;;;;25.15;49.67;100070.47;7293736;19;129440;-37
2022/06/14 09:41:13;;;;;;;;;;;;;;;25.27;49.65;100071.91;7299015;19;130656;-37
2022/06/14 09:43:42;;;;;;;;;;;;;;;25.33;50.54;100068.66;7299177;19;130394;-37
2022/06/14 09:46:07;;;;;;;;;;;;;;;25.27;50.69;100064.81;7312667;19;130523;-37
2022/06/14 09:48:38;;;;;;;;;;;;;;;25.41;50.17;100072.22;7314440;19;129486;-37
2022/06/14 09:51:13;;;;;;;;;;;;;;;25.43;50.10;100072.91;7312291;19;129540;-37
2022/06/14 09:53:57;;;;;;;;;;;;;;;25.44;50.40;100065.81;7314871;19;130022;-36
2022/06/14 09:56:36;;;;;;;;;;;;;;;25.44;50.88;100065.81;7317422;19;130596;-37
2022/06/14 09:59:07;;;;;;;;;;;;;;;25.47;51.28;100063.69;7312825;19;130346;-37
2022/06/14 10:01:51;;;;;;;;;;;;;;;24.98;45.61;100048.44;7316923;19;129820;-37
2022/06/14 10:04:16;;;;;;;;;;;;;;;24.79;45.81;100058.28;7314097;19;129437;-37
2022/06/14 10:06:42;;;;;;;;;;;;;;;24.76;45.57;100063.84;7314090;19;129181;-37
2022/06/14 10:09:13;;;;;;;;;;;;;;;24.76;45.04;100074.38;7312030;19;130951;-36
2022/06/14 10:11:42;;;;;;;;;;;;;;;24.77;44.97;100070.75;7315067;19;130273;-37
2022/06/14 10:14:16;;;;;;;;;;;;;;;24.78;45.18;100072.41;7315511;19;129388;-37
2022/06/14 10:16:41;;;;;;;;;;;;;;;24.79;44.39;100060.94;7309527;19;133312;-36
2022/06/14 10:19:12;;;;;;;;;;;;;;;24.81;44.79;100056.34;7313376;19;129765;-36
2022/06/14 10:21:46;;;;;;;;;;;;;;;24.86;46.65;100069.88;7313195;19;131679;-37
2022/06/14 10:24:11;;;;;;;;;;;;;;;25.08;49.30;100064.16;7312121;19;129325;-37
2022/06/14 10:29:38;;;;;;;;;;;;;;;25.29;50.42;100056.78;7309523;19;129341;-37
2022/06/14 10:32:09;;;;;;;;;;;;;;;25.32;50.30;100059.94;7310813;19;129398;-37
2022/06/14 10:34:34;;;;;;;;;;;;;;;25.37;50.29;100059.53;7312037;19;129455;-37
2022/06/14 10:37:03;;;;;;;;;;;;;;;25.32;50.45;100051.22;7313451;19;129338;-37
2022/06/14 10:39:33;;;;;;;;;;;;;;;25.41;50.74;100060.84;7311391;19;130584;-37
2022/06/14 10:42:06;;;;;;;;;;;;;;;25.42;50.76;100057.25;7314108;19;129094;-37
2022/06/14 10:44:52;;;;;;;;;;;;;;;25.44;50.59;100060.53;7312988;19;129112;-37
2022/06/14 10:47:32;;;;;;;;;;;;;;;24.99;45.84;100051.91;7313913;19;130592;-37
2022/06/14 10:50:03;;;;;;;;;;;;;;;24.79;45.67;100047.78;7314698;19;130225;-37
2022/06/14 10:52:40;;;;;;;;;;;;;;;24.77;45.46;100047.09;7307014;19;129880;-37
2022/06/14 10:55:16;;;;;;;;;;;;;;;24.76;45.06;100048.06;7314593;19;129358;-37
2022/06/14 10:58:08;;;;;;;;;;;;;;;24.75;45.01;100056.94;7311876;19;129563;-37
2022/06/14 11:00:47;;;;;;;;;;;;;;;24.77;44.68;100053.19;7312609;19;129855;-37
2022/06/14 11:03:32;;;;;;;;;;;;;;;24.78;44.34;100056.63;7314454;19;130113;-38
2022/06/14 11:06:15;;;;;;;;;;;;;;;24.70;45.00;100035.50;7313047;19;129212;-37
2022/06/14 11:08:46;;;;;;;;;;;;;;;24.92;47.96;100056.97;7310710;19;130197;-36
2022/06/14 11:11:30;;;;;;;;;;;;;;;25.09;49.38;100056.09;7311793;19;129718;-38
2022/06/14 11:14:13;;;;;;;;;;;;;;;25.20;50.22;100057.69;7313497;19;129097;-37
2022/06/14 11:17:02;;;;;;;;;;;;;;;25.27;49.82;100049.03;7309386;19;129472;-37
2022/06/14 11:19:46;;;;;;;;;;;;;;;25.32;50.14;100061.75;7310996;19;129099;-37
2022/06/14 11:22:26;;;;;;;;;;;;;;;25.35;50.75;100043.03;7311743;19;130146;-37
2022/06/14 11:24:55;;;;;;;;;;;;;;;25.26;50.51;100030.75;7310688;19;129363;-37
2022/06/14 11:27:29;;;;;;;;;;;;;;;25.38;50.91;100045.38;7309453;19;129858;-37
2022/06/14 11:30:13;;;;;;;;;;;;;;;25.39;50.47;100041.75;7292786;19;130563;-38
2022/06/14 11:32:38;;;;;;;;;;;;;;;25.40;51.31;100038.16;7296116;19;129107;-37
2022/06/14 11:35:09;;;;;;;;;;;;;;;24.87;45.77;100030.28;7295109;19;130520;-37
2022/06/14 11:37:46;;;;;;;;;;;;;;;24.75;45.44;100033.25;7293962;19;130135;-38
2022/06/14 11:40:20;;;;;;;;;;;;;;;24.74;45.28;100031.63;7306689;19;130363;-37
2022/06/14 11:43:04;;;;;;;;;;;;;;;24.75;45.11;100035.88;7311731;19;129428;-37
2022/06/14 11:45:44;;;;;;;;;;;;;;;24.65;45.30;100024.56;7312651;19;129013;-37
2022/06/14 11:48:09;;;;;;;;;;;;;;;24.75;44.56;100028.00;7310497;19;129943;-37
2022/06/14 11:50:50;;;;;;;;;;;;;;;24.76;45.08;100033.09;7313313;19;129755;-37
2022/06/14 11:53:34;;;;;;;;;;;;;;;24.78;44.97;100022.44;7309229;19;129383;-37
2022/06/14 11:56:26;;;;;;;;;;;;;;;24.78;44.75;100019.81;7312203;19;129598;-37
2022/06/14 11:58:53;;;;;;;;;;;;;;;25.05;48.95;100023.22;7309990;19;129070;-37
2022/06/14 12:01:27;;;;;;;;;;;;;;;25.16;50.21;100024.75;7310317;19;130061;-37
2022/06/14 12:04:02;;;;;;;;;;;;;;;25.23;50.09;100015.28;7313285;19;129228;-37
2022/06/14 12:06:37;;;;;;;;;;;;;;;25.27;50.36;100020.06;7310597;19;129256;-37
2022/06/14 12:09:15;;;;;;;;;;;;;;;25.31;50.48;100013.53;7306892;19;130130;-37
2022/06/14 12:11:46;;;;;;;;;;;;;;;25.35;50.73;100014.09;7312178;19;130222;-37
2022/06/14 12:14:14;;;;;;;;;;;;;;;25.36;50.41;100013.09;7311248;19;130181;-37
2022/06/14 12:16:41;;;;;;;;;;;;;;;25.29;50.40;100004.13;7309925;19;129081;-37
2022/06/14 12:19:11;;;;;;;;;;;;;;;25.35;50.59;99999.09;7308556;19;130048;-37
2022/06/14 12:21:36;;;;;;;;;;;;;;;25.19;47.79;100008.66;7310729;19;130256;-37
2022/06/14 12:24:07;;;;;;;;;;;;;;;24.80;45.51;100007.34;7305059;19;130298;-37
2022/06/14 12:26:44;;;;;;;;;;;;;;;24.74;45.78;100007.94;7311612;19;128787;-37
2022/06/14 12:29:12;;;;;;;;;;;;;;;24.74;44.90;100003.53;7307967;19;129574;-37
2022/06/14 12:31:43;;;;;;;;;;;;;;;24.74;45.03;100003.53;7310429;19;129517;-37
2022/06/14 12:34:14;;;;;;;;;;;;;;;24.75;44.90;99999.06;7310134;19;129636;-38
2022/06/14 12:36:58;;;;;;;;;;;;;;;24.75;45.25;100004.34;7317284;19;129781;-37
2022/06/14 12:39:27;;;;;;;;;;;;;;;24.75;44.35;99999.06;7315147;19;129309;-37
2022/06/14 12:41:59;;;;;;;;;;;;;;;24.77;45.02;100002.38;7316724;19;129133;-37
2022/06/14 12:44:37;;;;;;;;;;;;;;;24.91;47.84;100004.47;7318808;19;129229;-37
2022/06/14 12:47:03;;;;;;;;;;;;;;;25.07;50.00;99989.66;7316505;19;129143;-37
2022/06/14 12:49:32;;;;;;;;;;;;;;;25.14;49.99;99989.91;7313945;19;129448;-37
2022/06/14 12:52:00;;;;;;;;;;;;;;;25.21;50.54;99983.03;7317146;19;130093;-37
2022/06/14 12:54:40;;;;;;;;;;;;;;;25.25;50.06;99982.59;7317060;19;130553;-37
2022/06/14 12:57:13;;;;;;;;;;;;;;;25.29;50.27;99978.66;7316479;19;128933;-37
2022/06/14 12:59:46;;;;;;;;;;;;;;;25.32;50.99;99977.53;7315086;19;129268;-37
2022/06/14 13:02:17;;;;;;;;;;;;;;;25.32;50.65;99973.06;7316897;19;130518;-38